Time;durP1;ratioP1;P1;durP2;ratioP2;P2;SDS_P1;SDS_P2;PMS_P1;PMS_P2;Temp;Humidity;BMP_temperature;BMP_pressure;BME280_temperature;BME280_humidity;BME280_pressure;Samples;Min_cycle;Max_cycle;Signal;HPM_P1;HPM_P2
2022/12/27 00:00:57;;;;;;;0.60;0.20;;;6.20;1.00;;;;;;4899869;29;20485;-72
2022/12/27 00:03:25;;;;;;;0.50;0.20;;;6.20;1.00;;;;;;4899625;29;20975;-71
2022/12/27 00:05:53;;;;;;;0.50;0.20;;;6.20;1.00;;;;;;4899455;29;20955;-71
2022/12/27 00:08:21;;;;;;;0.50;0.30;;;6.10;1.00;;;;;;4899662;29;20460;-71
2022/12/27 00:10:50;;;;;;;0.50;0.20;;;6.10;1.00;;;;;;4899300;29;20573;-72
2022/12/27 00:13:17;;;;;;;0.87;0.30;;;6.10;1.00;;;;;;4899785;29;20453;-71
2022/12/27 00:15:45;;;;;;;0.50;0.10;;;6.10;1.00;;;;;;4899767;29;20454;-72
2022/12/27 00:18:13;;;;;;;0.50;0.20;;;6.10;1.00;;;;;;4898893;29;20490;-72
2022/12/27 00:20:41;;;;;;;0.50;0.10;;;6.10;1.00;;;;;;4898371;29;20836;-71
2022/12/27 00:23:08;;;;;;;0.50;0.10;;;6.10;1.00;;;;;;4898185;29;20947;-71
2022/12/27 00:25:36;;;;;;;0.50;0.10;;;6.20;1.00;;;;;;4898543;29;20453;-73
2022/12/27 00:28:05;;;;;;;0.50;0.20;;;6.20;1.00;;;;;;4898436;29;20445;-71
2022/12/27 00:30:33;;;;;;;0.50;0.10;;;6.20;1.00;;;;;;4898436;29;20446;-72
2022/12/27 00:33:02;;;;;;;0.50;0.27;;;6.10;1.00;;;;;;4898324;29;20951;-72
2022/12/27 00:35:30;;;;;;;0.50;0.10;;;6.10;1.00;;;;;;4897471;29;20454;-71
2022/12/27 00:37:57;;;;;;;0.60;0.33;;;6.10;1.00;;;;;;4897474;29;20492;-71
2022/12/27 00:40:25;;;;;;;0.50;0.30;;;6.10;1.00;;;;;;4898311;29;20449;-71
2022/12/27 00:42:53;;;;;;;0.50;0.10;;;6.00;1.00;;;;;;4898130;29;20454;-71
2022/12/27 00:45:22;;;;;;;0.60;0.40;;;6.00;1.00;;;;;;4898632;29;20457;-72
2022/12/27 00:47:50;;;;;;;0.50;0.10;;;6.00;1.00;;;;;;4898049;29;21154;-72
2022/12/27 00:50:18;;;;;;;0.50;0.20;;;6.00;1.00;;;;;;4897736;29;20463;-72
2022/12/27 00:52:46;;;;;;;0.83;0.83;;;6.00;1.00;;;;;;4898073;29;20521;-72
2022/12/27 00:55:14;;;;;;;0.50;0.20;;;5.90;1.00;;;;;;4897847;29;20453;-72
2022/12/27 00:57:41;;;;;;;0.50;0.10;;;5.90;1.00;;;;;;4897671;29;20562;-71
2022/12/27 05:04:17;;;;;;;0.53;0.20;;;4.70;1.00;;;;;;4891753;29;20463;-80
2022/12/27 05:06:46;;;;;;;0.50;0.10;;;;;;;;;;4889733;29;20546;-79
2022/12/27 05:14:41;;;;;;;0.50;0.10;;;4.50;1.00;;;;;;4902113;23;20450;-73
2022/12/27 05:17:10;;;;;;;0.60;0.20;;;4.50;1.00;;;;;;4897441;29;20485;-75
2022/12/27 05:19:37;;;;;;;0.83;0.20;;;4.50;1.00;;;;;;4897471;29;20450;-74
2022/12/27 05:27:36;;;;;;;0.50;0.10;;;4.50;1.00;;;;;;4881823;29;20861;-74
2022/12/27 05:30:04;;;;;;;0.50;0.10;;;4.50;1.00;;;;;;4882116;29;20446;-76
2022/12/27 05:32:34;;;;;;;0.50;0.10;;;4.50;1.00;;;;;;4880878;29;20457;-74
2022/12/27 05:35:01;;;;;;;0.50;0.20;;;4.50;1.00;;;;;;4878859;29;20471;-75
2022/12/27 05:37:29;;;;;;;0.50;0.10;;;4.40;1.00;;;;;;4878584;29;20490;-75
2022/12/27 05:39:57;;;;;;;5.60;1.40;;;4.50;1.00;;;;;;4878474;29;20466;-74
2022/12/27 05:42:25;;;;;;;1.07;0.47;;;4.40;1.00;;;;;;4878722;29;20450;-75
2022/12/27 05:44:52;;;;;;;0.50;0.20;;;4.30;1.00;;;;;;4877390;29;20470;-74
2022/12/27 05:47:20;;;;;;;0.50;0.10;;;4.30;1.00;;;;;;4878788;29;20459;-74
2022/12/27 05:49:49;;;;;;;0.50;0.20;;;4.30;1.00;;;;;;4882778;29;20868;-75
2022/12/27 05:52:17;;;;;;;0.50;0.10;;;4.30;1.00;;;;;;4883216;29;20455;-74
2022/12/27 05:54:45;;;;;;;0.70;0.40;;;4.30;1.00;;;;;;4886231;29;20477;-74
2022/12/27 05:57:13;;;;;;;0.60;0.30;;;4.30;1.00;;;;;;4886173;29;20836;-75
2022/12/27 05:59:41;;;;;;;0.50;0.10;;;4.30;1.00;;;;;;4884166;29;20450;-75
2022/12/27 06:02:08;;;;;;;0.80;0.60;;;4.40;1.00;;;;;;4881146;29;20522;-75
2022/12/27 06:04:36;;;;;;;0.50;0.20;;;4.40;1.00;;;;;;4878995;29;20459;-75
2022/12/27 06:07:06;;;;;;;0.50;0.10;;;4.40;1.00;;;;;;4878620;29;20648;-75
2022/12/27 06:09:33;;;;;;;0.50;0.10;;;4.40;1.00;;;;;;4879039;29;20502;-75
2022/12/27 06:12:01;;;;;;;0.60;0.30;;;4.50;1.00;;;;;;4878727;29;20458;-75
2022/12/27 06:14:29;;;;;;;0.50;0.10;;;4.50;1.00;;;;;;4878912;29;20455;-74
2022/12/27 06:16:57;;;;;;;0.50;0.10;;;4.60;1.00;;;;;;4878993;29;20457;-74
2022/12/27 06:19:25;;;;;;;0.50;0.10;;;4.60;1.00;;;;;;4878887;29;20534;-75
2022/12/27 06:21:52;;;;;;;0.50;0.10;;;4.60;1.00;;;;;;4878747;29;20461;-74
2022/12/27 06:24:22;;;;;;;0.60;0.40;;;4.70;1.00;;;;;;4878437;29;20455;-75
2022/12/27 06:26:49;;;;;;;0.50;0.30;;;4.70;1.00;;;;;;4891848;29;20461;-74
2022/12/27 06:29:17;;;;;;;0.50;0.10;;;4.70;1.00;;;;;;4898450;29;20950;-74
2022/12/27 06:31:45;;;;;;;1.20;0.57;;;4.60;1.00;;;;;;4907426;29;20517;-74
2022/12/27 06:34:13;;;;;;;0.60;0.50;;;4.50;1.00;;;;;;4902511;29;20462;-75
2022/12/27 06:36:41;;;;;;;0.50;0.10;;;4.50;1.00;;;;;;4904171;29;20469;-74
2022/12/27 06:39:09;;;;;;;0.60;0.37;;;4.50;1.00;;;;;;4906601;29;20485;-75
2022/12/27 06:41:38;;;;;;;0.50;0.10;;;4.50;1.00;;;;;;4901534;29;20457;-75
2022/12/27 06:44:06;;;;;;;0.50;0.10;;;4.50;1.00;;;;;;4901338;29;20445;-74
2022/12/27 06:46:34;;;;;;;0.50;0.10;;;4.40;1.00;;;;;;4900489;29;20482;-75
2022/12/27 06:49:01;;;;;;;0.50;0.10;;;4.50;1.00;;;;;;4900544;29;20445;-75
2022/12/27 06:51:30;;;;;;;0.50;0.10;;;4.50;1.00;;;;;;4900581;29;20454;-75
2022/12/27 06:53:58;;;;;;;0.50;0.10;;;4.50;1.00;;;;;;4901190;29;20580;-75
2022/12/27 06:56:25;;;;;;;0.50;0.10;;;4.50;1.00;;;;;;4900777;29;20877;-75
2022/12/27 06:58:55;;;;;;;0.50;0.20;;;4.60;1.00;;;;;;4900255;29;20577;-75
2022/12/27 07:01:25;;;;;;;0.50;0.10;;;4.60;1.00;;;;;;4900387;29;20460;-75
2022/12/27 07:03:55;;;;;;;0.50;0.10;;;4.60;1.00;;;;;;4900473;29;20454;-74
2022/12/27 07:06:24;;;;;;;0.50;0.10;;;4.70;1.00;;;;;;4900285;29;20470;-74
2022/12/27 07:08:53;;;;;;;0.50;0.10;;;4.70;1.00;;;;;;4900317;29;20456;-75
2022/12/27 07:11:22;;;;;;;0.50;0.10;;;4.80;1.00;;;;;;4900246;29;20449;-75
2022/12/27 07:13:51;;;;;;;0.50;0.10;;;4.80;1.00;;;;;;4900408;29;20962;-75
2022/12/27 07:16:22;;;;;;;0.50;0.10;;;4.80;1.00;;;;;;4903949;29;20477;-74
2022/12/27 07:18:50;;;;;;;0.60;0.40;;;4.80;1.00;;;;;;4903870;29;20489;-74
2022/12/27 07:21:20;;;;;;;0.50;0.10;;;4.80;1.00;;;;;;4903237;29;20454;-74
2022/12/27 07:23:48;;;;;;;0.50;0.10;;;4.80;1.00;;;;;;4900020;29;20454;-75
2022/12/27 07:26:18;;;;;;;0.50;0.10;;;4.90;1.00;;;;;;4914501;29;20466;-74
2022/12/27 07:28:46;;;;;;;0.73;0.73;;;4.80;1.00;;;;;;4914131;29;20457;-76
2022/12/27 07:31:16;;;;;;;0.50;0.10;;;4.90;1.00;;;;;;4900998;29;20453;-75
2022/12/27 07:33:45;;;;;;;0.50;0.10;;;4.90;1.00;;;;;;4901205;29;20449;-75
2022/12/27 07:36:16;;;;;;;0.50;0.10;;;4.90;1.00;;;;;;4899917;29;20470;-74
2022/12/27 07:38:44;;;;;;;0.50;0.10;;;4.90;1.00;;;;;;4899829;29;20486;-75
2022/12/27 07:41:13;;;;;;;0.50;0.10;;;4.90;1.00;;;;;;4902522;29;20453;-76
2022/12/27 07:43:43;;;;;;;0.50;0.10;;;4.90;1.00;;;;;;4901519;29;20450;-75
2022/12/27 07:46:13;;;;;;;0.50;0.10;;;5.00;1.00;;;;;;4901336;29;20486;-75
2022/12/27 07:48:41;;;;;;;0.50;0.10;;;4.90;1.00;;;;;;4899744;29;20951;-74
2022/12/27 07:51:10;;;;;;;0.50;0.10;;;5.00;1.00;;;;;;4899984;29;20450;-75
2022/12/27 07:53:38;;;;;;;0.50;0.10;;;5.00;1.00;;;;;;4900056;29;20450;-75
2022/12/27 07:56:08;;;;;;;0.50;0.10;;;5.00;1.00;;;;;;4900325;29;20470;-74
2022/12/27 07:58:37;;;;;;;0.50;0.10;;;5.00;1.00;;;;;;4900114;29;20496;-75
2022/12/27 08:01:05;;;;;;;0.50;0.10;;;5.00;1.00;;;;;;4900809;29;20446;-75
2022/12/27 08:03:33;;;;;;;0.50;0.20;;;5.00;1.00;;;;;;4900753;29;20483;-75
2022/12/27 08:06:01;;;;;;;0.50;0.20;;;5.00;1.00;;;;;;4902243;29;20485;-76
2022/12/27 08:08:37;;;;;;;1.03;0.93;;;5.00;1.00;;;;;;4902139;29;20473;-76
2022/12/27 08:11:05;;;;;;;11.53;3.07;;;4.90;1.00;;;;;;4900720;29;20452;-77
2022/12/27 08:13:33;;;;;;;0.50;0.10;;;4.90;1.00;;;;;;4899383;29;20454;-76
2022/12/27 08:16:02;;;;;;;0.50;0.10;;;4.80;1.00;;;;;;4898319;29;20485;-77
2022/12/27 08:18:30;;;;;;;0.50;0.10;;;4.80;1.00;;;;;;4898230;29;20809;-75
2022/12/27 08:20:57;;;;;;;0.50;0.10;;;4.80;1.00;;;;;;4898612;29;20947;-77
2022/12/27 08:23:25;;;;;;;0.50;0.10;;;4.90;1.00;;;;;;4898981;29;20524;-75
2022/12/27 08:25:54;;;;;;;0.50;0.10;;;4.90;1.00;;;;;;4892291;29;20490;-74
2022/12/27 08:28:22;;;;;;;0.50;0.10;;;5.00;1.00;;;;;;4879307;29;20945;-75
2022/12/27 08:30:50;;;;;;;0.50;0.10;;;5.10;1.00;;;;;;4881574;29;20462;-75
2022/12/27 08:33:18;;;;;;;0.50;0.10;;;5.10;1.00;;;;;;4890456;29;20450;-75
2022/12/27 08:35:46;;;;;;;0.50;0.10;;;5.20;1.00;;;;;;4880473;29;20486;-75
2022/12/27 08:38:22;;;;;;;0.50;0.10;;;5.20;1.00;;;;;;4880446;29;20427;-74
2022/12/27 08:40:49;;;;;;;0.70;0.60;;;5.30;1.00;;;;;;4879451;29;20496;-75
2022/12/27 08:43:19;;;;;;;0.50;0.10;;;5.30;1.00;;;;;;4879436;29;20458;-74
2022/12/27 08:45:47;;;;;;;0.50;0.10;;;5.30;1.00;;;;;;4879421;29;21271;-76
2022/12/27 08:48:14;;;;;;;0.50;0.17;;;5.30;1.00;;;;;;4879041;29;20458;-75
2022/12/27 08:50:42;;;;;;;0.90;0.40;;;5.20;1.00;;;;;;4880151;29;20526;-75
2022/12/27 08:53:10;;;;;;;0.50;0.10;;;5.30;1.00;;;;;;4885415;29;20466;-75
2022/12/27 08:55:38;;;;;;;1.87;0.83;;;5.30;1.00;;;;;;4884014;29;20471;-74
2022/12/27 08:58:14;;;;;;;0.60;0.30;;;5.20;1.00;;;;;;4878576;29;20462;-73
2022/12/27 09:00:44;;;;;;;0.60;0.30;;;5.10;1.00;;;;;;4880900;29;21092;-74
2022/12/27 09:03:12;;;;;;;0.50;0.10;;;5.10;1.00;;;;;;4879077;29;20474;-75
2022/12/27 09:05:40;;;;;;;0.60;0.30;;;5.00;1.00;;;;;;4879006;29;20546;-74
2022/12/27 09:08:09;;;;;;;4.83;1.40;;;5.00;1.00;;;;;;4879750;29;20446;-75
2022/12/27 09:10:37;;;;;;;0.90;0.67;;;5.00;1.00;;;;;;4879854;29;20453;-75
2022/12/27 09:13:05;;;;;;;0.60;0.50;;;4.90;1.00;;;;;;4882962;29;20458;-75
2022/12/27 09:15:33;;;;;;;0.50;0.10;;;5.00;1.00;;;;;;4885806;29;20493;-75
2022/12/27 09:18:02;;;;;;;0.83;0.83;;;5.00;1.00;;;;;;4883731;29;20980;-75
2022/12/27 09:20:31;;;;;;;0.50;0.10;;;5.00;1.00;;;;;;4880913;29;20487;-74
2022/12/27 09:22:59;;;;;;;0.50;0.20;;;5.10;1.00;;;;;;4878730;29;20470;-74
2022/12/27 09:25:27;;;;;;;0.50;0.10;;;5.10;1.00;;;;;;4881307;29;20492;-74
2022/12/27 09:27:55;;;;;;;0.70;0.30;;;5.30;1.00;;;;;;4897486;29;20541;-74
2022/12/27 09:30:23;;;;;;;2.50;1.57;;;5.30;1.00;;;;;;4897600;29;20445;-75
2022/12/27 09:32:51;;;;;;;2.93;1.80;;;5.40;1.00;;;;;;4898233;29;20576;-75
2022/12/27 09:35:20;;;;;;;0.50;0.10;;;5.40;1.00;;;;;;4897952;29;20489;-74
2022/12/27 09:37:48;;;;;;;0.60;0.30;;;5.50;1.00;;;;;;4898560;29;20465;-75
2022/12/27 09:40:17;;;;;;;0.50;0.20;;;5.50;1.00;;;;;;4899243;29;21006;-75
2022/12/27 09:42:51;;;;;;;0.50;0.10;;;5.60;1.00;;;;;;4899258;29;20446;-75
2022/12/27 09:45:44;;;;;;;0.50;0.30;;;5.60;1.00;;;;;;4897756;29;20534;-74
2022/12/27 09:48:17;;;;;;;0.93;0.47;;;5.60;1.00;;;;;;4898332;29;20584;-74
2022/12/27 09:50:51;;;;;;;2.77;0.70;;;5.60;1.00;;;;;;4898193;29;20807;-74
2022/12/27 09:53:24;;;;;;;0.50;0.20;;;5.70;1.00;;;;;;4898710;29;20792;-75
2022/12/27 09:55:54;;;;;;;0.50;0.20;;;5.70;1.00;;;;;;4897826;29;20581;-75
2022/12/27 09:58:39;;;;;;;0.50;0.10;;;5.90;1.00;;;;;;4897741;29;20461;-74
2022/12/27 10:01:19;;;;;;;26.83;2.40;;;5.90;1.00;;;;;;4897599;29;20485;-75
2022/12/27 10:03:47;;;;;;;0.60;0.43;;;5.80;1.00;;;;;;4897548;29;20450;-74
2022/12/27 10:06:41;;;;;;;0.50;0.20;;;5.80;1.00;;;;;;4898298;29;20532;-74
2022/12/27 10:09:31;;;;;;;0.50;0.20;;;5.70;1.00;;;;;;4897887;29;20486;-76
2022/12/27 10:12:04;;;;;;;2.30;2.10;;;5.80;1.00;;;;;;4902507;29;20549;-74
2022/12/27 10:14:48;;;;;;;0.57;0.27;;;5.80;1.00;;;;;;4902966;29;20501;-75
2022/12/27 10:17:27;;;;;;;0.70;0.50;;;5.80;1.00;;;;;;4902271;29;20461;-75
2022/12/27 10:20:05;;;;;;;0.70;0.30;;;5.90;1.00;;;;;;4901930;29;20492;-77
2022/12/27 10:22:40;;;;;;;1.20;0.80;;;6.00;1.00;;;;;;4901168;29;20453;-75
2022/12/27 10:25:13;;;;;;;0.50;0.10;;;6.00;1.00;;;;;;4903845;29;20523;-76
2022/12/27 10:27:41;;;;;;;0.57;0.40;;;6.10;1.00;;;;;;4885216;29;20483;-76
2022/12/27 10:30:14;;;;;;;1.60;1.17;;;6.20;1.00;;;;;;4883764;29;20462;-75
2022/12/27 10:32:43;;;;;;;0.60;0.30;;;6.30;1.00;;;;;;4882339;29;20450;-76
2022/12/27 10:35:15;;;;;;;5.20;3.10;;;6.30;1.00;;;;;;4883862;29;20475;-76
2022/12/27 10:37:45;;;;;;;0.50;0.10;;;6.30;1.00;;;;;;4882374;29;20971;-75
2022/12/27 10:40:17;;;;;;;0.50;0.10;;;6.40;1.00;;;;;;4882647;29;20494;-75
2022/12/27 10:42:51;;;;;;;0.90;0.37;;;6.40;1.00;;;;;;4882128;29;20541;-74
2022/12/27 10:45:31;;;;;;;0.50;0.30;;;6.30;1.00;;;;;;4881784;29;20477;-75
2022/12/27 10:48:13;;;;;;;0.70;0.40;;;6.30;1.00;;;;;;4881709;29;20443;-75
2022/12/27 10:50:45;;;;;;;0.50;0.13;;;6.10;1.00;;;;;;4882177;29;20474;-76
2022/12/27 10:53:31;;;;;;;4.40;1.13;;;6.10;1.00;;;;;;4881787;29;20461;-76
2022/12/27 10:56:14;;;;;;;0.50;0.20;;;6.10;1.00;;;;;;4882649;29;20586;-76
2022/12/27 10:58:45;;;;;;;0.50;0.10;;;6.20;1.00;;;;;;4898534;29;20450;-74
2022/12/27 11:01:18;;;;;;;0.50;0.10;;;6.30;1.00;;;;;;4892752;29;20496;-74
2022/12/27 11:03:46;;;;;;;0.50;0.10;;;6.30;1.00;;;;;;4882369;29;20430;-74
2022/12/27 11:06:25;;;;;;;0.60;0.37;;;6.40;1.00;;;;;;4881422;29;20474;-74
2022/12/27 11:08:54;;;;;;;0.60;0.30;;;6.50;1.00;;;;;;4882889;29;20499;-74
2022/12/27 11:11:24;;;;;;;0.50;0.10;;;6.50;1.00;;;;;;4882541;29;20455;-75
2022/12/27 11:13:52;;;;;;;0.50;0.10;;;;;;;;;;4882262;29;20447;-76
2022/12/27 11:16:28;;;;;;;0.70;0.67;;;6.60;1.00;;;;;;4882253;29;20478;-74
2022/12/27 11:18:58;;;;;;;0.50;0.30;;;6.70;1.00;;;;;;4883691;29;20446;-78
2022/12/27 11:21:28;;;;;;;1.37;1.13;;;6.80;1.00;;;;;;4883237;29;20492;-73
2022/12/27 11:24:01;;;;;;;0.80;0.47;;;6.70;1.00;;;;;;4884121;29;20447;-73
2022/12/27 11:26:32;;;;;;;0.50;0.10;;;6.70;1.00;;;;;;4884502;29;20485;-74
2022/12/27 11:29:02;;;;;;;0.50;0.17;;;6.70;1.00;;;;;;4890211;29;20454;-74
2022/12/27 11:31:36;;;;;;;0.50;0.20;;;6.70;1.00;;;;;;4888743;29;20927;-76
2022/12/27 11:34:08;;;;;;;0.50;0.10;;;6.70;1.00;;;;;;4886424;29;20482;-75
2022/12/27 11:36:39;;;;;;;0.50;0.20;;;6.80;1.00;;;;;;4883648;29;20992;-74
2022/12/27 11:39:30;;;;;;;0.50;0.10;;;6.80;1.00;;;;;;4884029;29;20447;-75
2022/12/27 11:42:00;;;;;;;0.50;0.10;;;6.70;1.00;;;;;;4882668;29;20493;-75
2022/12/27 11:44:33;;;;;;;0.50;0.10;;;6.80;1.00;;;;;;4884174;29;20466;-75
2022/12/27 11:47:06;;;;;;;0.50;0.20;;;6.80;1.00;;;;;;4885394;29;20461;-75
2022/12/27 11:49:37;;;;;;;0.50;0.10;;;6.80;1.00;;;;;;4885737;29;20451;-76
2022/12/27 11:52:23;;;;;;;0.50;0.10;;;6.70;1.00;;;;;;4882708;29;20959;-74
2022/12/27 11:55:18;;;;;;;0.80;0.80;;;6.60;1.00;;;;;;4884424;29;20535;-75
2022/12/27 11:58:11;;;;;;;0.60;0.30;;;6.60;1.00;;;;;;4883750;29;20458;-74
2022/12/27 12:00:49;;;;;;;0.70;0.40;;;6.50;1.00;;;;;;4884293;29;20506;-75
2022/12/27 12:03:56;;;;;;;3.20;1.03;;;6.50;1.00;;;;;;4884653;29;20450;-76
2022/12/27 12:06:35;;;;;;;7.03;0.53;;;6.40;1.00;;;;;;4884741;29;20474;-76
2022/12/27 12:09:25;;;;;;;3.57;1.80;;;6.50;1.00;;;;;;4884627;29;20446;-74
2022/12/27 12:12:38;;;;;;;1.23;0.33;;;6.50;1.00;;;;;;4885033;29;20462;-76
2022/12/27 12:15:34;;;;;;;1.40;0.53;;;6.60;1.00;;;;;;4883860;29;20474;-75
2022/12/27 12:18:16;;;;;;;1.53;1.43;;;6.60;1.00;;;;;;4883192;29;20447;-75
2022/12/27 12:21:02;;;;;;;0.50;0.20;;;6.70;1.00;;;;;;4885129;29;20439;-74
2022/12/27 12:23:47;;;;;;;0.50;0.10;;;6.80;1.00;;;;;;4884712;29;20952;-74
2022/12/27 12:26:20;;;;;;;0.60;0.30;;;6.90;1.00;;;;;;4899787;29;20480;-74
2022/12/27 12:29:31;;;;;;;0.50;0.10;;;7.10;1.00;;;;;;4912818;29;20449;-76
2022/12/27 12:32:26;;;;;;;0.60;0.40;;;7.20;1.00;;;;;;4905760;29;20796;-74
2022/12/27 12:35:14;;;;;;;0.50;0.30;;;7.30;1.00;;;;;;4903821;29;20465;-76
2022/12/27 12:38:18;;;;;;;0.50;0.30;;;7.30;1.00;;;;;;4906469;29;20453;-76
2022/12/27 12:41:16;;;;;;;0.50;0.10;;;7.30;1.00;;;;;;4851181;29;20440;-75
2022/12/27 12:44:17;;;;;;;1.63;1.53;;;7.30;1.00;;;;;;4907966;29;20817;-76
2022/12/27 12:46:53;;;;;;;0.50;0.10;;;7.30;1.00;;;;;;4903568;29;20445;-76
2022/12/27 12:49:37;;;;;;;1.00;0.63;;;7.30;1.00;;;;;;4908230;29;20840;-75
2022/12/27 12:52:24;;;;;;;0.77;0.47;;;7.40;1.00;;;;;;4908874;29;20449;-77
2022/12/27 12:55:12;;;;;;;0.50;0.10;;;7.40;1.00;;;;;;4908283;29;20466;-77
2022/12/27 12:57:52;;;;;;;0.50;0.10;;;7.50;1.00;;;;;;4908315;29;20441;-76
2022/12/27 13:00:36;;;;;;;1.23;0.70;;;7.60;1.00;;;;;;4908922;29;20422;-76
2022/12/27 13:03:36;;;;;;;4.53;0.67;;;7.50;1.00;;;;;;4907705;29;20581;-74
2022/12/27 13:06:18;;;;;;;1.27;0.50;;;7.20;1.00;;;;;;4907548;29;20474;-76
2022/12/27 13:08:55;;;;;;;0.50;0.20;;;7.20;1.00;;;;;;4902504;29;20452;-76
2022/12/27 13:11:39;;;;;;;0.50;0.10;;;7.30;1.00;;;;;;4902733;29;20418;-77
2022/12/27 13:14:25;;;;;;;0.60;0.30;;;7.30;1.00;;;;;;4904146;29;20442;-76
2022/12/27 13:17:00;;;;;;;1.30;0.50;;;7.30;1.00;;;;;;4902025;29;20437;-76
2022/12/27 13:19:51;;;;;;;0.50;0.20;;;7.40;1.00;;;;;;4900200;29;20896;-76
2022/12/27 13:22:33;;;;;;;0.60;0.30;;;7.50;1.00;;;;;;4901909;29;20537;-76
2022/12/27 13:25:15;;;;;;;0.50;0.20;;;7.50;1.00;;;;;;4904881;29;20465;-76
2022/12/27 13:27:53;;;;;;;0.50;0.10;;;7.60;1.00;;;;;;4884229;29;20461;-75
2022/12/27 13:30:23;;;;;;;0.50;0.17;;;7.60;1.00;;;;;;4883699;29;20438;-76
2022/12/27 13:33:05;;;;;;;0.50;0.10;;;7.60;1.00;;;;;;4887577;29;20442;-75
2022/12/27 13:35:44;;;;;;;0.70;0.47;;;7.60;1.00;;;;;;4887939;29;20466;-76
2022/12/27 13:38:30;;;;;;;2.83;1.73;;;7.60;1.00;;;;;;4884688;29;20835;-76
2022/12/27 13:41:14;;;;;;;0.50;0.20;;;7.60;1.00;;;;;;4884175;29;20458;-76
2022/12/27 13:44:00;;;;;;;0.50;0.10;;;7.50;1.00;;;;;;4887175;29;20453;-76
2022/12/27 13:46:57;;;;;;;0.50;0.10;;;7.60;1.00;;;;;;4886922;29;20483;-76
2022/12/27 13:49:46;;;;;;;0.50;0.10;;;7.70;1.00;;;;;;4887074;29;20435;-79
2022/12/27 13:52:37;;;;;;;0.50;0.10;;;7.80;1.00;;;;;;4886362;29;20447;-74
2022/12/27 13:55:33;;;;;;;0.50;0.10;;;7.80;1.00;;;;;;4890086;29;20471;-78
2022/12/27 13:58:29;;;;;;;0.50;0.20;;;7.80;1.00;;;;;;4888681;29;20497;-76
2022/12/27 14:01:08;;;;;;;0.77;0.77;;;7.80;1.00;;;;;;4886230;29;20435;-76
2022/12/27 14:03:49;;;;;;;1.07;0.60;;;7.80;1.00;;;;;;4885106;29;20573;-75
2022/12/27 14:06:56;;;;;;;0.50;0.10;;;7.70;1.00;;;;;;4885720;29;20550;-76
2022/12/27 14:09:55;;;;;;;0.50;0.30;;;7.70;1.00;;;;;;4869363;29;20454;-75
2022/12/27 14:12:55;;;;;;;0.50;0.20;;;7.70;1.00;;;;;;4877989;29;20451;-76
2022/12/27 14:15:28;;;;;;;0.50;0.10;;;7.70;1.00;;;;;;4892927;29;20483;-76
2022/12/27 14:18:15;;;;;;;0.63;0.30;;;7.70;1.00;;;;;;4895156;29;20436;-76
2022/12/27 14:20:55;;;;;;;0.50;0.10;;;7.70;1.00;;;;;;4894422;29;20442;-77
2022/12/27 14:23:54;;;;;;;0.50;0.10;;;7.70;1.00;;;;;;4892237;29;20474;-75
2022/12/27 14:26:54;;;;;;;0.50;0.13;;;7.90;1.00;;;;;;4904051;29;20470;-76
2022/12/27 14:30:17;;;;;;;4.80;4.43;;;7.90;1.00;;;;;;4914084;29;20453;-75
2022/12/27 14:33:24;;;;;;;0.50;0.10;;;7.90;1.00;;;;;;4907266;29;20442;-76
2022/12/27 14:36:31;;;;;;;0.50;0.10;;;7.80;1.00;;;;;;4897649;29;20480;-76
2022/12/27 14:39:35;;;;;;;0.50;0.10;;;7.80;1.00;;;;;;4905522;29;20947;-75
2022/12/27 14:42:36;;;;;;;0.50;0.10;;;7.70;1.00;;;;;;4905250;29;20480;-75
2022/12/27 14:45:41;;;;;;;0.50;0.10;;;7.70;1.00;;;;;;4905680;29;20557;-76
2022/12/27 14:48:32;;;;;;;0.50;0.10;;;7.70;1.00;;;;;;4904672;29;20959;-76
2022/12/27 14:51:30;;;;;;;0.50;0.10;;;7.60;1.00;;;;;;4904698;29;21060;-76
2022/12/27 14:54:52;;;;;;;0.50;0.10;;;7.60;1.00;;;;;;4907283;29;20500;-76
2022/12/27 14:57:30;;;;;;;0.50;0.10;;;7.60;1.00;;;;;;4907955;29;20958;-77
2022/12/27 15:00:11;;;;;;;0.50;0.10;;;7.60;1.00;;;;;;4910707;29;20453;-77
2022/12/27 15:03:09;;;;;;;0.50;0.10;;;7.50;1.00;;;;;;4909200;29;20496;-77
2022/12/27 15:05:55;;;;;;;0.50;0.10;;;7.50;1.00;;;;;;4908126;29;20529;-75
2022/12/27 15:08:45;;;;;;;0.50;0.10;;;7.50;1.00;;;;;;4908419;29;20483;-75
2022/12/27 15:11:38;;;;;;;0.60;0.60;;;7.40;1.00;;;;;;4908302;29;20457;-76
2022/12/27 15:14:21;;;;;;;0.50;0.30;;;7.40;1.00;;;;;;4907196;29;20453;-75
2022/12/27 15:16:59;;;;;;;0.50;0.10;;;7.30;1.00;;;;;;4906354;29;20465;-76
2022/12/27 15:19:44;;;;;;;0.50;0.10;;;7.20;1.00;;;;;;4904982;29;20460;-75
2022/12/27 15:22:23;;;;;;;0.50;0.13;;;7.10;1.00;;;;;;4905658;29;20454;-77
2022/12/27 15:24:59;;;;;;;0.50;0.20;;;7.00;1.00;;;;;;4906150;29;20506;-77
2022/12/27 15:27:38;;;;;;;0.50;0.30;;;7.00;1.00;;;;;;4887683;29;20454;-75
2022/12/27 15:30:18;;;;;;;0.50;0.10;;;6.90;1.00;;;;;;4894524;29;20510;-76
2022/12/27 15:32:59;;;;;;;0.50;0.10;;;7.00;1.00;;;;;;4890511;29;20446;-76
2022/12/27 15:35:54;;;;;;;0.83;0.83;;;7.00;1.00;;;;;;4886517;29;20478;-77
2022/12/27 15:38:45;;;;;;;1.17;1.07;;;7.00;1.00;;;;;;4884601;29;20450;-75
2022/12/27 15:41:48;;;;;;;0.50;0.20;;;6.90;1.00;;;;;;4886951;29;20455;-76
2022/12/27 15:44:44;;;;;;;0.50;0.20;;;6.90;1.00;;;;;;4891099;29;20490;-77
2022/12/27 15:47:44;;;;;;;0.60;0.20;;;6.90;1.00;;;;;;4889711;29;20450;-76
2022/12/27 15:50:38;;;;;;;0.50;0.10;;;7.00;1.00;;;;;;4887039;29;20454;-77
2022/12/27 15:53:30;;;;;;;2.00;0.43;;;7.00;1.00;;;;;;4888870;29;20480;-75
2022/12/27 15:56:29;;;;;;;0.50;0.10;;;6.90;1.00;;;;;;4889415;29;20471;-76
2022/12/27 15:59:34;;;;;;;0.50;0.20;;;6.90;1.00;;;;;;4888773;29;20478;-76
2022/12/27 16:02:26;;;;;;;2.87;2.60;;;6.90;1.00;;;;;;4894788;29;20463;-76
2022/12/27 16:04:57;;;;;;;0.60;0.27;;;6.80;1.00;;;;;;4888601;29;20495;-76
2022/12/27 16:07:43;;;;;;;0.70;0.30;;;6.70;1.00;;;;;;4886967;29;20979;-76
2022/12/27 16:10:33;;;;;;;1.07;0.73;;;6.70;1.00;;;;;;4886851;29;20451;-75
2022/12/27 16:13:19;;;;;;;1.20;1.07;;;6.60;1.00;;;;;;4884533;29;20442;-77
2022/12/27 16:15:52;;;;;;;0.50;0.27;;;6.40;1.00;;;;;;4884581;29;20558;-76
2022/12/27 16:18:57;;;;;;;0.60;0.43;;;6.40;1.00;;;;;;4884675;29;20541;-76
2022/12/27 16:21:26;;;;;;;0.50;0.20;;;6.40;1.00;;;;;;4884882;29;20450;-77
2022/12/27 16:23:59;;;;;;;0.50;0.20;;;6.30;1.00;;;;;;4884458;29;20574;-76
2022/12/27 16:26:30;;;;;;;0.50;0.20;;;6.30;1.00;;;;;;4892448;29;20469;-76
2022/12/27 16:29:02;;;;;;;0.50;0.10;;;6.30;1.00;;;;;;4901831;29;20454;-75
2022/12/27 16:31:33;;;;;;;0.60;0.20;;;6.30;1.00;;;;;;4903261;29;20458;-75
2022/12/27 16:34:13;;;;;;;2.60;0.40;;;5.80;1.00;;;;;;4902769;29;20450;-77
2022/12/27 16:36:45;;;;;;;0.60;0.20;;;6.20;1.00;;;;;;4903068;29;20477;-76
2022/12/27 16:39:39;;;;;;;0.60;0.40;;;6.20;1.00;;;;;;4902279;29;20446;-76
2022/12/27 16:42:09;;;;;;;0.50;0.20;;;6.10;1.00;;;;;;4900657;29;20466;-76
2022/12/27 16:44:52;;;;;;;0.70;0.60;;;6.10;1.00;;;;;;4900915;29;20481;-76
2022/12/27 16:47:40;;;;;;;0.73;0.30;;;6.10;1.00;;;;;;4906233;29;20454;-77
2022/12/27 16:50:25;;;;;;;13.43;1.03;;;6.00;1.00;;;;;;4904824;29;20450;-77
2022/12/27 16:53:04;;;;;;;0.50;0.20;;;5.90;1.00;;;;;;4900526;29;20457;-76
2022/12/27 16:56:03;;;;;;;0.50;0.20;;;5.90;1.00;;;;;;4909480;29;20473;-74
2022/12/27 16:58:36;;;;;;;0.97;0.80;;;5.90;1.00;;;;;;4900534;29;20446;-76
2022/12/27 17:01:06;;;;;;;0.50;0.20;;;5.90;1.00;;;;;;4904850;29;20445;-77
2022/12/27 17:03:55;;;;;;;1.00;0.23;;;5.90;1.00;;;;;;4904086;29;20846;-76
2022/12/27 17:06:55;;;;;;;2.90;2.63;;;5.90;1.00;;;;;;4903584;29;20454;-77
2022/12/27 17:09:45;;;;;;;1.90;0.47;;;5.90;1.00;;;;;;4902892;29;20456;-76
2022/12/27 17:12:22;;;;;;;1.23;0.83;;;5.90;1.00;;;;;;4903564;29;20968;-74
2022/12/27 17:17:22;;;;;;;1.30;1.00;;;5.90;1.00;;;;;;4846627;29;20469;-79
2022/12/27 17:20:02;;;;;;;1.63;1.50;;;5.90;1.00;;;;;;4847569;29;20528;-79
2022/12/27 17:22:32;;;;;;;3.40;3.10;;;5.90;1.00;;;;;;4847096;29;20528;-79
2022/12/27 17:25:14;;;;;;;0.50;0.10;;;5.90;1.00;;;;;;4846687;29;20560;-79
2022/12/27 17:27:56;;;;;;;0.80;0.53;;;5.90;1.00;;;;;;4849360;29;20456;-80
2022/12/27 17:30:44;;;;;;;3.17;1.57;;;6.00;1.00;;;;;;4849340;29;20471;-79
2022/12/27 17:33:35;;;;;;;1.23;1.13;;;6.00;1.00;;;;;;4860568;29;20429;-77
2022/12/27 17:36:26;;;;;;;1.30;1.03;;;6.00;1.00;;;;;;4864978;29;20480;-76
2022/12/27 17:39:14;;;;;;;0.70;0.53;;;6.00;1.00;;;;;;4853959;29;20440;-79
2022/12/27 17:44:52;;;;;;;0.80;0.43;;;6.10;1.00;;;;;;4850585;29;21073;-79
2022/12/27 17:47:33;;;;;;;1.00;0.50;;;6.10;1.00;;;;;;4850596;29;20455;-80
2022/12/27 17:50:05;;;;;;;0.53;0.33;;;6.10;1.00;;;;;;4849678;29;21064;-80
2022/12/27 17:58:10;;;;;;;0.87;0.73;;;6.20;1.00;;;;;;4853452;29;20456;-78
2022/12/27 18:00:43;;;;;;;0.70;0.47;;;6.30;1.00;;;;;;4851382;29;20460;-78
2022/12/27 18:03:13;;;;;;;0.80;0.80;;;6.40;1.00;;;;;;4850718;29;21034;-77
2022/12/27 18:05:45;;;;;;;0.97;0.87;;;6.40;1.00;;;;;;4850081;29;20498;-78
2022/12/27 18:08:26;;;;;;;1.77;0.83;;;6.40;1.00;;;;;;4850108;29;20996;-80
2022/12/27 18:10:55;;;;;;;0.67;0.50;;;6.40;1.00;;;;;;4850586;29;20560;-78
2022/12/27 18:13:26;;;;;;;1.27;0.50;;;6.50;1.00;;;;;;4848528;29;20468;-79
2022/12/27 18:15:55;;;;;;;0.50;0.10;;;6.50;1.00;;;;;;4848312;29;21060;-79
2022/12/27 18:18:27;;;;;;;0.60;0.43;;;6.50;1.00;;;;;;4849708;29;20453;-80
2022/12/27 18:20:58;;;;;;;0.90;0.57;;;6.60;1.00;;;;;;4849074;29;20497;-78
2022/12/27 18:23:27;;;;;;;0.50;0.30;;;6.60;1.00;;;;;;4848378;29;20449;-78
2022/12/27 18:26:01;;;;;;;0.50;0.10;;;6.60;1.00;;;;;;4850229;29;20480;-78